createdAt,value
2023-01-15T00:02:44.649Z,21.33
2023-01-15T00:06:47.533Z,22.52
2023-01-15T00:10:50.283Z,29.48
2023-01-15T00:14:53.757Z,26.23
2023-01-15T00:18:59.356Z,23.48
2023-01-15T00:23:02.241Z,25.67
2023-01-15T00:27:23.325Z,21.17
2023-01-15T00:31:26.411Z,27.20
2023-01-15T00:35:29.223Z,27.17
2023-01-15T00:39:32.057Z,26.23
2023-01-15T00:43:34.944Z,20.38
2023-01-15T00:47:39.849Z,18.23
2023-01-15T00:51:42.801Z,17.63
2023-01-15T00:55:45.625Z,20.60
2023-01-15T00:59:48.657Z,16.85
2023-01-15T01:03:53.123Z,15.75
2023-01-15T01:07:59.460Z,17.25
2023-01-15T01:12:04.070Z,18.90
2023-01-15T01:16:25.503Z,17.40
2023-01-15T01:20:29.105Z,20.05
2023-01-15T01:24:31.978Z,18.92
2023-01-15T01:28:35.094Z,21.33
2023-01-15T01:32:37.905Z,29.83
2023-01-15T01:36:42.578Z,26.65
2023-01-15T01:40:46.572Z,22.90
2023-01-15T01:44:52.475Z,25.98
2023-01-15T01:49:02.609Z,34.40
2023-01-15T01:53:16.988Z,29.52
2023-01-15T01:57:22.482Z,26.83
2023-01-15T02:01:26.731Z,27.52
2023-01-15T02:05:32.412Z,28.08
2023-01-15T02:09:35.175Z,29.73
2023-01-15T02:14:12.920Z,28.70
2023-01-15T02:18:34.999Z,29.03
2023-01-15T02:23:19.813Z,32.20
2023-01-15T02:27:24.933Z,27.47
2023-01-15T02:31:36.293Z,23.58
2023-01-15T02:35:46.795Z,21.52
2023-01-15T02:39:51.671Z,22.67
2023-01-15T02:43:57.073Z,21.23
2023-01-15T02:48:08.246Z,31.92
2023-01-15T02:52:27.950Z,25.10
2023-01-15T02:56:36.069Z,18.48
2023-01-15T03:00:42.885Z,19.85
2023-01-15T03:04:55.535Z,28.45
2023-01-15T03:08:58.931Z,17.33
2023-01-15T03:13:03.676Z,19.17
2023-01-15T03:17:28.572Z,30.17
2023-01-15T03:21:41.457Z,25.67
2023-01-15T03:25:49.516Z,21.10
2023-01-15T03:29:58.913Z,23.48
2023-01-15T03:34:02.588Z,21.70
2023-01-15T03:38:05.668Z,20.08
2023-01-15T03:42:35.604Z,19.10
2023-01-15T03:46:55.986Z,18.85
2023-01-15T03:51:17.178Z,18.10
2023-01-15T03:55:30.646Z,21.17
2023-01-15T03:59:55.684Z,18.38
2023-01-15T04:04:01.223Z,15.05
2023-01-15T04:08:06.758Z,15.68
2023-01-15T04:12:11.598Z,18.95
2023-01-15T04:16:26.355Z,20.63
2023-01-15T04:20:29.755Z,19.00
2023-01-15T04:24:33.238Z,16.30
2023-01-15T04:28:36.033Z,19.33
2023-01-15T04:32:38.929Z,20.90
2023-01-15T04:36:42.786Z,20.23
2023-01-15T04:41:04.093Z,20.40
2023-01-15T04:45:07.440Z,22.92
2023-01-15T04:49:13.469Z,23.38
2023-01-15T04:53:16.267Z,25.17
2023-01-15T04:57:19.053Z,23.67
2023-01-15T05:01:21.991Z,22.02
2023-01-15T05:05:25.079Z,24.27
2023-01-15T05:09:28.258Z,23.60
2023-01-15T05:13:33.359Z,19.88
2023-01-15T05:17:36.425Z,21.67
2023-01-15T05:21:42.741Z,20.42
2023-01-15T05:25:45.587Z,21.80
2023-01-15T05:29:48.474Z,21.38
2023-01-15T05:33:52.459Z,23.27
2023-01-15T05:37:55.384Z,23.50
2023-01-15T05:41:58.403Z,26.40
2023-01-15T05:46:08.202Z,30.73
2023-01-15T05:50:11.338Z,25.35
2023-01-15T05:54:26.513Z,25.85
2023-01-15T05:58:29.420Z,30.65
2023-01-15T06:02:32.212Z,28.88
2023-01-15T06:06:35.882Z,25.30
2023-01-15T06:10:38.748Z,20.77
2023-01-15T06:14:41.628Z,25.33
2023-01-15T06:18:44.601Z,29.63
2023-01-15T06:22:49.423Z,24.67
2023-01-15T06:26:54.393Z,27.23
2023-01-15T06:30:57.187Z,25.00
2023-01-15T06:34:59.951Z,23.30
2023-01-15T06:39:05.370Z,22.38
2023-01-15T06:43:29.297Z,25.67
2023-01-15T06:47:32.007Z,24.48
2023-01-15T06:51:34.776Z,28.15
2023-01-15T06:55:37.572Z,25.42
2023-01-15T06:59:40.281Z,24.30
2023-01-15T07:03:43.246Z,21.20
2023-01-15T07:07:46.107Z,20.10
2023-01-15T07:11:51.757Z,22.10
2023-01-15T07:15:54.716Z,22.83
2023-01-15T07:19:57.653Z,23.85
2023-01-15T07:24:01.136Z,21.17
2023-01-15T07:28:04.217Z,21.08
2023-01-15T07:32:07.056Z,24.20
2023-01-15T07:36:10.566Z,20.92
2023-01-15T07:40:13.382Z,25.52
2023-01-15T07:44:35.106Z,26.05
2023-01-15T07:48:56.655Z,25.23
2023-01-15T07:52:59.444Z,23.10
2023-01-15T07:57:02.758Z,20.90
2023-01-15T08:01:05.858Z,20.65
2023-01-15T08:05:11.723Z,20.58
2023-01-15T08:09:14.759Z,22.77
2023-01-15T08:13:36.167Z,22.65
2023-01-15T08:17:41.544Z,24.10
2023-01-15T08:22:04.664Z,25.83
2023-01-15T08:26:07.442Z,27.25
2023-01-15T08:30:14.269Z,22.48
2023-01-15T08:34:19.235Z,24.88
2023-01-15T08:38:21.967Z,23.42
2023-01-15T08:42:24.680Z,24.23
2023-01-15T08:46:27.683Z,21.20
2023-01-15T08:50:30.494Z,21.08
2023-01-15T08:54:33.497Z,20.65
2023-01-15T08:58:36.282Z,20.63
2023-01-15T09:02:38.989Z,20.98
2023-01-15T09:06:43.125Z,21.02
2023-01-15T09:10:45.866Z,21.83
2023-01-15T09:15:02.933Z,20.98
2023-01-15T09:19:07.871Z,22.88
2023-01-15T09:23:10.703Z,23.55
2023-01-15T09:27:15.020Z,22.20
2023-01-15T09:31:17.861Z,21.42
2023-01-15T09:35:22.511Z,22.42
2023-01-15T09:39:25.291Z,20.75
2023-01-15T09:43:38.833Z,20.20
2023-01-15T09:48:03.559Z,18.80
2023-01-15T09:52:33.194Z,17.35
2023-01-15T09:56:37.866Z,18.45
2023-01-15T10:00:47.870Z,20.42
2023-01-15T10:05:17.399Z,19.95
2023-01-15T10:09:31.784Z,19.58
2023-01-15T10:14:06.830Z,19.27
2023-01-15T10:18:26.241Z,18.98
2023-01-15T10:22:58.782Z,19.27
2023-01-15T10:27:19.424Z,18.05
2023-01-15T10:31:26.239Z,16.40
2023-01-15T10:35:49.878Z,15.93
2023-01-15T10:40:17.245Z,14.70
2023-01-15T10:45:06.291Z,14.13
2023-01-15T10:49:17.892Z,13.60
2023-01-15T10:53:45.498Z,16.15
2023-01-15T10:58:10.576Z,15.68
2023-01-15T11:02:22.642Z,16.02
2023-01-15T11:06:28.231Z,14.35
2023-01-15T11:10:32.403Z,14.52
2023-01-15T11:15:03.110Z,12.38
2023-01-15T11:19:37.188Z,14.65
2023-01-15T11:23:40.192Z,14.38
2023-01-15T11:27:43.014Z,13.75
2023-01-15T11:31:45.764Z,13.63
2023-01-15T11:35:58.334Z,7.13
2023-01-15T11:40:09.417Z,7.28
2023-01-15T11:44:31.497Z,4.05
2023-01-15T11:49:05.760Z,5.50
2023-01-15T11:53:18.830Z,6.22
2023-01-15T11:57:31.360Z,4.63
2023-01-15T12:01:37.382Z,4.38
2023-01-15T12:06:06.358Z,5.23
2023-01-15T12:10:40.859Z,5.18
2023-01-15T12:15:09.090Z,5.65
2023-01-15T12:19:40.802Z,4.95
2023-01-15T12:23:56.838Z,7.53
2023-01-15T12:28:02.764Z,17.33
2023-01-15T12:32:16.133Z,4.63
2023-01-15T12:36:49.277Z,5.30
2023-01-15T12:41:02.404Z,4.28
2023-01-15T12:45:30.836Z,2.75
2023-01-15T12:49:37.898Z,3.97
2023-01-15T12:53:43.443Z,3.30
2023-01-15T12:57:53.428Z,2.97
2023-01-15T13:02:11.827Z,3.20
2023-01-15T13:06:16.932Z,3.83
2023-01-15T13:10:28.319Z,3.80
2023-01-15T13:14:31.278Z,3.67
2023-01-15T13:18:48.189Z,3.63
2023-01-15T13:23:09.304Z,3.80
2023-01-15T13:27:24.309Z,3.47
2023-01-15T13:31:58.658Z,3.40
2023-01-15T13:36:27.294Z,4.45
2023-01-15T13:40:36.401Z,3.88
2023-01-15T13:44:45.675Z,3.92
2023-01-15T13:48:50.878Z,3.92
2023-01-15T13:53:06.658Z,3.67
2023-01-15T13:57:36.691Z,3.63
2023-01-15T14:02:11.699Z,4.25
2023-01-15T14:06:09.725Z,2.97
2023-01-15T14:10:19.691Z,4.18
2023-01-15T14:14:37.914Z,4.18
2023-01-15T14:18:50.304Z,3.78
2023-01-15T14:23:37.691Z,5.32
2023-01-15T14:27:56.730Z,3.70
2023-01-15T14:32:22.438Z,4.20
2023-01-15T14:36:31.917Z,4.10
2023-01-15T14:40:36.697Z,3.25
2023-01-15T14:44:43.209Z,2.63
2023-01-15T14:48:46.066Z,3.35
2023-01-15T14:52:50.778Z,3.25
2023-01-15T14:56:59.795Z,4.03
2023-01-15T15:01:41.735Z,4.32
2023-01-15T15:05:46.111Z,4.22
2023-01-15T15:10:10.801Z,4.50
2023-01-15T15:14:16.192Z,4.63
2023-01-15T15:18:32.565Z,4.15
2023-01-15T15:22:38.756Z,4.55
2023-01-15T15:26:42.002Z,4.75
2023-01-15T15:30:46.692Z,4.60
2023-01-15T15:34:53.026Z,3.50
2023-01-15T15:39:04.646Z,4.77
2023-01-15T15:43:50.845Z,4.25
2023-01-15T15:52:23.161Z,6.50
2023-01-15T15:56:26.601Z,4.60
2023-01-15T16:00:36.074Z,4.07
2023-01-15T16:04:47.401Z,4.97
2023-01-15T16:09:04.748Z,4.50
2023-01-15T16:13:16.789Z,4.75
2023-01-15T16:17:43.640Z,5.03
2023-01-15T16:21:47.006Z,4.63
2023-01-15T16:26:08.103Z,5.38
2023-01-15T16:30:14.970Z,4.85
2023-01-15T16:34:21.478Z,7.20
2023-01-15T16:38:26.107Z,7.32
2023-01-15T16:42:40.268Z,6.20
2023-01-15T16:47:21.565Z,6.30
2023-01-15T16:51:24.907Z,4.30
2023-01-15T16:55:45.906Z,4.50
2023-01-15T17:00:00.986Z,8.07
2023-01-15T17:04:04.827Z,8.02
2023-01-15T17:08:17.993Z,6.43
2023-01-15T17:12:39.531Z,5.63
2023-01-15T17:16:42.410Z,5.13
2023-01-15T17:20:46.149Z,7.63
2023-01-15T17:24:50.522Z,3.40
2023-01-15T17:28:53.608Z,3.50
2023-01-15T17:32:59.791Z,3.53
2023-01-15T17:37:02.691Z,2.97
2023-01-15T17:41:08.427Z,2.38
2023-01-15T17:45:20.072Z,2.28
2023-01-15T17:49:22.789Z,2.95
2023-01-15T17:53:28.518Z,1.67
2023-01-15T17:58:10.124Z,3.17
2023-01-15T18:02:34.738Z,2.58
2023-01-15T18:06:38.266Z,2.85
2023-01-15T18:10:41.250Z,1.75
2023-01-15T18:14:44.725Z,2.33
2023-01-15T18:18:47.692Z,1.77
2023-01-15T18:22:50.544Z,1.60
2023-01-15T18:26:53.700Z,2.78
2023-01-15T18:30:56.423Z,3.00
2023-01-15T18:34:59.275Z,2.60
2023-01-15T18:39:06.387Z,2.42
2023-01-15T18:43:28.321Z,2.33
2023-01-15T18:47:31.322Z,2.97
2023-01-15T18:51:34.112Z,2.20
2023-01-15T18:55:36.962Z,2.35
2023-01-15T18:59:52.753Z,3.33
2023-01-15T19:03:58.697Z,3.80
2023-01-15T19:08:01.705Z,2.43
2023-01-15T19:12:06.331Z,2.38
2023-01-15T19:16:28.416Z,2.40
2023-01-15T19:20:31.244Z,4.28
2023-01-15T19:24:35.334Z,3.22
2023-01-15T19:28:38.126Z,2.58
2023-01-15T19:33:05.031Z,3.40
2023-01-15T19:37:08.296Z,2.13
2023-01-15T19:41:32.909Z,4.28
2023-01-15T19:45:58.184Z,3.22
2023-01-15T19:50:19.617Z,2.58
2023-01-15T19:54:42.332Z,1.98
2023-01-15T19:58:45.124Z,3.42
2023-01-15T20:02:48.195Z,2.78
2023-01-15T20:06:53.863Z,1.80
2023-01-15T20:10:56.694Z,2.05
2023-01-15T20:15:00.069Z,2.53
2023-01-15T20:19:02.798Z,13.00
2023-01-15T20:23:06.284Z,2.55
2023-01-15T20:27:13.982Z,3.60
2023-01-15T20:31:18.417Z,2.22
2023-01-15T20:35:24.731Z,2.83
2023-01-15T20:39:27.550Z,2.90
2023-01-15T20:43:48.705Z,3.00
2023-01-15T20:48:09.946Z,2.70
2023-01-15T20:52:12.784Z,3.65
2023-01-15T20:56:16.774Z,2.63
2023-01-15T21:00:23.083Z,3.33
2023-01-15T21:04:26.046Z,5.10
2023-01-15T21:08:29.532Z,2.30
2023-01-15T21:12:33.253Z,2.33
2023-01-15T21:16:36.109Z,2.20
2023-01-15T21:20:39.455Z,2.10
2023-01-15T21:24:42.342Z,1.70
2023-01-15T21:28:45.112Z,2.03
2023-01-15T21:32:48.808Z,1.88
2023-01-15T21:36:51.609Z,2.17
2023-01-15T21:40:54.284Z,2.42
2023-01-15T21:44:57.379Z,2.00
2023-01-15T21:49:00.153Z,2.03
2023-01-15T21:53:02.980Z,2.10
2023-01-15T21:57:06.578Z,1.70
2023-01-15T22:01:15.781Z,2.65
2023-01-15T22:05:23.848Z,1.35
2023-01-15T22:09:26.811Z,1.92
2023-01-15T22:13:29.613Z,2.20
2023-01-15T22:17:32.371Z,2.00
2023-01-15T22:21:35.456Z,2.30
2023-01-15T22:25:43.110Z,2.30
2023-01-15T22:29:45.953Z,2.53
2023-01-15T22:33:48.929Z,2.10
2023-01-15T22:37:51.679Z,2.05
2023-01-15T22:42:13.094Z,2.13
2023-01-15T22:46:16.318Z,2.00
2023-01-15T22:50:19.449Z,2.20
2023-01-15T22:54:22.474Z,2.13
2023-01-15T22:58:25.798Z,2.17
2023-01-15T23:02:47.305Z,2.47
2023-01-15T23:06:51.928Z,2.15
2023-01-15T23:10:54.939Z,2.00
2023-01-15T23:14:58.615Z,2.17
2023-01-15T23:19:01.997Z,2.05
2023-01-15T23:23:04.702Z,1.95
2023-01-15T23:27:07.405Z,1.95
2023-01-15T23:31:11.001Z,1.80
2023-01-15T23:35:13.830Z,2.05
2023-01-15T23:39:16.811Z,2.22
2023-01-15T23:43:38.129Z,2.30
2023-01-15T23:47:40.878Z,2.10
2023-01-15T23:51:43.789Z,2.65
2023-01-15T23:56:12.945Z,2.08
